Time;durP1;ratioP1;P1;durP2;ratioP2;P2;SDS_P1;SDS_P2;PMS_P1;PMS_P2;Temp;Humidity;BMP_temperature;BMP_pressure;BME280_temperature;BME280_humidity;BME280_pressure;Samples;Min_cycle;Max_cycle;Signal;HPM_P1;HPM_P2
2023/08/09 00:01:08;;;;;;;3.03;1.17;;;13.30;99.90;;;;;;5022671;28;20040;-70
2023/08/09 00:03:33;;;;;;;3.45;1.00;;;13.30;99.90;;;;;;5039740;28;20846;-70
2023/08/09 00:05:59;;;;;;;3.83;1.42;;;13.30;99.90;;;;;;5037989;28;20037;-70
2023/08/09 00:08:24;;;;;;;3.47;1.20;;;13.30;99.90;;;;;;5038892;28;20128;-70
2023/08/09 00:10:50;;;;;;;6.75;1.25;;;13.30;99.90;;;;;;5032425;28;21428;-70
2023/08/09 00:13:15;;;;;;;3.15;1.00;;;13.30;99.90;;;;;;5050485;28;20127;-70
2023/08/09 00:15:41;;;;;;;3.95;1.05;;;13.30;99.90;;;;;;5073019;28;20238;-70
2023/08/09 00:18:07;;;;;;;2.97;1.42;;;13.20;99.90;;;;;;5039716;28;20037;-70
2023/08/09 00:20:32;;;;;;;4.18;1.58;;;13.20;99.90;;;;;;5038147;28;20083;-70
2023/08/09 00:22:58;;;;;;;7.60;1.95;;;13.30;99.90;;;;;;5036544;28;20037;-70
2023/08/09 00:25:24;;;;;;;4.95;1.40;;;13.20;99.90;;;;;;5036973;28;20045;-70
2023/08/09 00:27:50;;;;;;;3.72;1.40;;;13.20;99.90;;;;;;5036447;28;20057;-70
2023/08/09 00:30:16;;;;;;;4.95;1.58;;;13.20;99.90;;;;;;5069063;28;20075;-70
2023/08/09 00:32:42;;;;;;;5.35;1.65;;;13.30;99.90;;;;;;5067530;28;20864;-70
2023/08/09 00:35:10;;;;;;;3.92;1.77;;;13.30;99.90;;;;;;5052614;28;20510;-70
2023/08/09 00:37:38;;;;;;;3.70;1.65;;;13.30;99.90;;;;;;5029986;28;20037;-70
2023/08/09 00:40:07;;;;;;;3.72;1.63;;;13.30;99.90;;;;;;5037542;28;20483;-70
2023/08/09 00:42:34;;;;;;;5.85;1.67;;;13.30;99.90;;;;;;5040967;28;20028;-70
2023/08/09 00:44:59;;;;;;;4.10;1.95;;;13.30;99.90;;;;;;5043296;28;20048;-70
2023/08/09 00:47:26;;;;;;;3.53;1.80;;;13.30;99.90;;;;;;5074389;28;20036;-70
2023/08/09 00:49:51;;;;;;;4.68;1.77;;;13.30;99.90;;;;;;5076071;28;20052;-70
2023/08/09 00:52:19;;;;;;;4.70;2.05;;;13.40;99.90;;;;;;5075329;28;20403;-70
2023/08/09 00:54:48;;;;;;;5.88;1.98;;;13.30;99.90;;;;;;5041314;28;20613;-70
2023/08/09 00:57:14;;;;;;;4.78;1.95;;;13.30;99.90;;;;;;5036301;28;20433;-70
2023/08/09 00:59:40;;;;;;;3.55;1.58;;;13.30;99.90;;;;;;5040255;28;20065;-70
2023/08/09 01:02:08;;;;;;;6.03;2.42;;;13.30;99.90;;;;;;5054095;28;20311;-70
2023/08/09 01:04:34;;;;;;;4.18;1.98;;;13.20;99.90;;;;;;5041723;28;20491;-70
2023/08/09 01:07:26;;;;;;;6.65;2.17;;;13.20;99.90;;;;;;5041062;28;20033;-70
2023/08/09 01:10:17;;;;;;;5.28;2.08;;;13.20;99.90;;;;;;5042398;28;20043;-70
2023/08/09 01:12:51;;;;;;;7.13;2.28;;;13.20;99.90;;;;;;5057995;28;20124;-70
2023/08/09 01:15:20;;;;;;;5.85;2.00;;;13.10;99.90;;;;;;5040518;28;20059;-70
2023/08/09 01:17:48;;;;;;;5.35;2.35;;;13.20;99.90;;;;;;5041955;28;20497;-70
2023/08/09 01:20:16;;;;;;;3.95;1.65;;;13.10;99.90;;;;;;5040361;28;20044;-70
2023/08/09 01:23:02;;;;;;;5.50;2.33;;;13.10;99.90;;;;;;5040911;28;21529;-70
2023/08/09 01:25:28;;;;;;;5.57;2.13;;;13.20;99.90;;;;;;5072475;28;20041;-70
2023/08/09 01:27:56;;;;;;;3.72;2.08;;;13.10;99.90;;;;;;5039737;28;20163;-70
2023/08/09 01:30:22;;;;;;;4.57;1.70;;;13.10;99.90;;;;;;5041435;28;20429;-70
2023/08/09 01:32:47;;;;;;;4.25;1.80;;;13.10;99.90;;;;;;5037064;28;20029;-70
2023/08/09 01:35:15;;;;;;;4.75;2.30;;;13.10;99.90;;;;;;5043969;28;20064;-70
2023/08/09 01:37:48;;;;;;;4.28;1.73;;;13.00;99.90;;;;;;5039573;28;20453;-70
2023/08/09 01:40:17;;;;;;;4.22;1.90;;;13.00;99.90;;;;;;5041205;28;20033;-70
2023/08/09 01:42:43;;;;;;;5.13;1.58;;;13.00;99.90;;;;;;5024907;28;20048;-71
2023/08/09 01:45:11;;;;;;;6.55;2.10;;;13.00;99.90;;;;;;5043326;28;20441;-70
2023/08/09 01:47:38;;;;;;;3.55;1.77;;;13.00;99.90;;;;;;5074275;28;20044;-70
2023/08/09 01:50:18;;;;;;;5.20;1.92;;;12.90;99.90;;;;;;5071270;28;20450;-70
2023/08/09 01:52:43;;;;;;;6.00;2.05;;;12.90;99.90;;;;;;5042454;28;20052;-70
2023/08/09 01:55:09;;;;;;;3.75;1.52;;;12.90;99.90;;;;;;5039399;28;20054;-70
2023/08/09 01:57:34;;;;;;;5.57;2.00;;;12.90;99.90;;;;;;5018523;28;20102;-70
2023/08/09 02:00:00;;;;;;;4.07;1.80;;;12.90;99.90;;;;;;5043316;28;20037;-70
2023/08/09 02:02:26;;;;;;;5.30;1.95;;;12.90;99.90;;;;;;5040613;28;20036;-70
2023/08/09 02:04:51;;;;;;;3.65;1.75;;;12.80;99.90;;;;;;5042360;28;20039;-70
2023/08/09 02:07:17;;;;;;;4.43;1.77;;;12.90;99.90;;;;;;5039974;28;20409;-70
2023/08/09 02:09:43;;;;;;;4.65;2.00;;;12.80;99.90;;;;;;5040182;28;20436;-70
2023/08/09 02:12:08;;;;;;;5.07;2.05;;;12.80;99.90;;;;;;5075000;28;20048;-70
2023/08/09 02:14:34;;;;;;;4.80;1.90;;;12.80;99.90;;;;;;5040048;28;20525;-70
2023/08/09 02:16:59;;;;;;;7.55;2.70;;;12.80;99.90;;;;;;5041682;28;20060;-70
2023/08/09 02:19:25;;;;;;;6.18;2.35;;;12.80;99.90;;;;;;5038008;28;20238;-70
2023/08/09 02:21:51;;;;;;;6.13;2.38;;;12.80;99.90;;;;;;5074657;28;20453;-70
2023/08/09 02:24:16;;;;;;;7.28;2.03;;;12.70;99.90;;;;;;5038211;28;20041;-70
2023/08/09 02:26:42;;;;;;;5.72;2.28;;;12.80;99.90;;;;;;5070372;28;20076;-70
2023/08/09 02:29:08;;;;;;;4.90;1.92;;;12.70;99.90;;;;;;5038772;28;20041;-71
2023/08/09 02:31:34;;;;;;;4.95;2.17;;;12.70;99.90;;;;;;5023774;28;20036;-70
2023/08/09 02:34:00;;;;;;;6.40;1.95;;;12.70;99.90;;;;;;5071296;28;20500;-70
2023/08/09 02:36:26;;;;;;;4.22;2.08;;;12.70;99.90;;;;;;5039566;28;20043;-71
2023/08/09 02:38:52;;;;;;;4.78;2.30;;;12.70;99.90;;;;;;5039737;28;20132;-70
2023/08/09 02:41:19;;;;;;;4.10;1.73;;;12.70;99.90;;;;;;5041086;28;20498;-70
2023/08/09 02:43:44;;;;;;;5.45;2.00;;;12.70;99.90;;;;;;5072057;28;20119;-70
2023/08/09 02:46:10;;;;;;;6.07;2.10;;;12.70;99.90;;;;;;5043314;28;20084;-70
2023/08/09 02:48:35;;;;;;;5.03;2.20;;;12.70;99.90;;;;;;5044600;28;20036;-70
2023/08/09 02:51:01;;;;;;;5.30;2.60;;;12.70;99.90;;;;;;5077875;28;20041;-71
2023/08/09 02:53:36;;;;;;;6.28;2.00;;;12.70;99.90;;;;;;5076430;28;20264;-71
2023/08/09 02:56:02;;;;;;;7.28;3.25;;;12.70;99.90;;;;;;5043728;28;20057;-70
2023/08/09 02:58:27;;;;;;;4.40;2.35;;;12.70;99.90;;;;;;5038327;28;20069;-70
2023/08/09 03:00:53;;;;;;;4.97;2.10;;;12.70;99.90;;;;;;5039298;28;20089;-71
2023/08/09 03:03:19;;;;;;;4.05;1.98;;;12.60;99.90;;;;;;5022914;28;20418;-70
2023/08/09 03:05:44;;;;;;;5.75;1.95;;;12.60;99.90;;;;;;5040829;28;20073;-70
2023/08/09 03:08:10;;;;;;;3.70;1.77;;;12.60;99.90;;;;;;5072635;28;20041;-71
2023/08/09 03:10:36;;;;;;;5.88;2.30;;;12.60;99.90;;;;;;5041350;28;20041;-71
2023/08/09 03:13:02;;;;;;;5.65;2.33;;;12.60;99.90;;;;;;5041164;28;20527;-70
2023/08/09 03:15:28;;;;;;;4.75;1.95;;;12.60;99.90;;;;;;5039897;28;20037;-71
2023/08/09 03:17:54;;;;;;;4.93;1.90;;;12.50;99.90;;;;;;5037860;28;20076;-71
2023/08/09 03:20:19;;;;;;;5.75;2.40;;;12.50;99.90;;;;;;5038446;28;20075;-70
2023/08/09 03:22:45;;;;;;;4.90;2.08;;;12.50;99.90;;;;;;5040498;28;20529;-70
2023/08/09 03:25:12;;;;;;;7.18;2.33;;;12.50;99.90;;;;;;5072442;28;20041;-71
2023/08/09 03:27:38;;;;;;;6.55;2.10;;;12.50;99.90;;;;;;5038377;28;20063;-71
2023/08/09 03:30:05;;;;;;;6.00;2.13;;;12.50;99.90;;;;;;5036200;28;20041;-71
2023/08/09 03:32:31;;;;;;;6.03;2.08;;;12.40;99.90;;;;;;5037248;28;20036;-70
2023/08/09 03:34:57;;;;;;;5.07;2.13;;;12.40;99.90;;;;;;5037681;28;20727;-70
2023/08/09 03:37:22;;;;;;;3.85;2.13;;;12.40;99.90;;;;;;5038520;28;20048;-71
2023/08/09 03:39:48;;;;;;;6.30;2.30;;;12.40;99.90;;;;;;5037831;28;20498;-70
2023/08/09 03:42:14;;;;;;;4.97;2.25;;;12.40;99.90;;;;;;5039668;28;20040;-70
2023/08/09 03:44:39;;;;;;;7.07;2.40;;;12.40;99.90;;;;;;5071296;28;20286;-71
2023/08/09 03:47:05;;;;;;;4.20;2.00;;;12.40;99.90;;;;;;5040956;28;20179;-71
2023/08/09 03:49:30;;;;;;;5.20;2.53;;;12.40;99.90;;;;;;5040971;28;20442;-71
2023/08/09 03:51:56;;;;;;;6.80;2.75;;;12.30;99.90;;;;;;5039988;28;20077;-70
2023/08/09 03:54:21;;;;;;;5.25;2.70;;;12.30;99.90;;;;;;5038215;28;20048;-71
2023/08/09 03:56:47;;;;;;;6.07;2.65;;;12.30;99.90;;;;;;5035117;28;20033;-71
2023/08/09 03:59:13;;;;;;;5.13;2.30;;;12.30;99.90;;;;;;5039556;28;20856;-71
2023/08/09 04:01:38;;;;;;;4.85;2.42;;;12.30;99.90;;;;;;5038061;28;20405;-71
2023/08/09 04:04:05;;;;;;;6.05;2.47;;;12.30;99.90;;;;;;5039921;28;20079;-70
2023/08/09 04:06:30;;;;;;;5.13;2.67;;;12.30;99.90;;;;;;5039856;28;20507;-70
2023/08/09 04:08:56;;;;;;;5.03;2.53;;;12.30;99.90;;;;;;5037602;28;20032;-70
2023/08/09 04:11:21;;;;;;;7.43;2.90;;;12.30;99.90;;;;;;5039988;28;20457;-70
2023/08/09 04:13:47;;;;;;;6.75;2.20;;;12.30;99.90;;;;;;5038083;28;20477;-70
2023/08/09 04:16:13;;;;;;;4.97;2.50;;;12.30;99.90;;;;;;5039025;28;20430;-70
2023/08/09 04:18:38;;;;;;;5.43;2.53;;;12.20;99.90;;;;;;5038590;28;20029;-70
2023/08/09 04:21:04;;;;;;;5.25;2.28;;;12.20;99.90;;;;;;5037717;28;20514;-70
2023/08/09 04:23:29;;;;;;;4.68;2.35;;;12.30;99.90;;;;;;5038914;28;20048;-70
2023/08/09 04:25:57;;;;;;;5.10;2.55;;;12.30;99.90;;;;;;5038397;28;20045;-70
2023/08/09 04:28:23;;;;;;;5.38;2.33;;;12.30;99.90;;;;;;5038706;28;20045;-71
2023/08/09 04:30:48;;;;;;;5.00;2.25;;;12.20;99.90;;;;;;5068778;28;20465;-70
2023/08/09 04:33:14;;;;;;;4.60;2.38;;;12.20;99.90;;;;;;5038644;28;20037;-70
2023/08/09 04:35:42;;;;;;;6.22;2.53;;;12.20;99.90;;;;;;5039786;28;20049;-70
2023/08/09 04:38:07;;;;;;;7.03;2.78;;;12.20;99.90;;;;;;5039252;28;20037;-71
2023/08/09 04:40:36;;;;;;;6.07;2.58;;;12.20;99.90;;;;;;5023675;28;20052;-70
2023/08/09 04:43:03;;;;;;;5.32;2.40;;;12.20;99.90;;;;;;5042762;28;20102;-70
2023/08/09 04:45:29;;;;;;;4.85;2.30;;;12.20;99.90;;;;;;5040703;28;20055;-70
2023/08/09 04:47:56;;;;;;;7.05;2.47;;;12.20;99.90;;;;;;5043784;28;20399;-70
2023/08/09 04:50:23;;;;;;;4.80;2.50;;;12.20;99.90;;;;;;5080389;28;20035;-71
2023/08/09 04:52:49;;;;;;;5.00;2.15;;;12.30;99.90;;;;;;5046124;28;20127;-71
2023/08/09 04:55:15;;;;;;;3.22;1.92;;;12.30;99.90;;;;;;5078037;28;20499;-71
2023/08/09 04:57:41;;;;;;;3.97;2.42;;;12.30;99.90;;;;;;5039274;28;20033;-71
2023/08/09 05:00:10;;;;;;;4.93;2.63;;;12.30;99.90;;;;;;5038035;28;20260;-70
2023/08/09 05:02:36;;;;;;;4.65;2.10;;;12.30;99.90;;;;;;5039384;28;20041;-71
2023/08/09 05:05:04;;;;;;;4.60;2.35;;;12.30;99.90;;;;;;5040770;28;20040;-71
2023/08/09 05:07:30;;;;;;;5.07;2.85;;;12.40;99.90;;;;;;5057900;28;20168;-71
2023/08/09 05:09:56;;;;;;;4.65;2.42;;;12.40;99.90;;;;;;5043550;28;20037;-71
2023/08/09 05:12:21;;;;;;;6.85;2.72;;;12.40;99.90;;;;;;5058455;28;20456;-71
2023/08/09 05:14:47;;;;;;;3.60;2.08;;;12.40;99.90;;;;;;5042250;28;20046;-71
2023/08/09 05:17:12;;;;;;;4.45;2.50;;;12.40;99.90;;;;;;5075909;28;20044;-71
2023/08/09 05:19:38;;;;;;;5.75;2.00;;;12.40;99.90;;;;;;5041902;28;20414;-70
2023/08/09 05:22:03;;;;;;;4.63;2.00;;;12.40;99.90;;;;;;5057417;28;20048;-71
2023/08/09 05:24:29;;;;;;;4.18;2.35;;;12.50;99.90;;;;;;5040320;28;20116;-71
2023/08/09 05:26:55;;;;;;;7.00;2.30;;;12.50;99.90;;;;;;5055760;28;20060;-71
2023/08/09 05:29:21;;;;;;;5.13;2.53;;;12.50;99.90;;;;;;5024718;28;20041;-71
2023/08/09 05:31:46;;;;;;;5.95;2.80;;;12.50;99.90;;;;;;5043099;28;20043;-71
2023/08/09 05:34:12;;;;;;;4.30;2.00;;;12.50;99.90;;;;;;5042482;28;20033;-71
2023/08/09 05:36:37;;;;;;;5.97;2.10;;;12.50;99.90;;;;;;5072087;28;20025;-71
2023/08/09 05:39:03;;;;;;;4.88;2.15;;;12.60;99.90;;;;;;5041521;28;20558;-71
2023/08/09 05:41:29;;;;;;;4.45;2.30;;;12.60;99.90;;;;;;5074149;28;20289;-71
2023/08/09 05:43:54;;;;;;;3.83;2.08;;;12.60;99.90;;;;;;5039646;28;20052;-71
2023/08/09 05:46:20;;;;;;;6.13;2.10;;;12.70;99.90;;;;;;5043065;28;20041;-71
2023/08/09 05:48:46;;;;;;;3.58;2.15;;;12.70;99.90;;;;;;5072871;28;20052;-71
2023/08/09 05:51:12;;;;;;;5.32;2.35;;;12.70;99.90;;;;;;5037052;28;20059;-71
2023/08/09 05:53:37;;;;;;;5.53;2.63;;;12.80;99.90;;;;;;5024292;28;20498;-71
2023/08/09 05:56:03;;;;;;;4.95;2.15;;;12.80;99.90;;;;;;5034829;28;20044;-71
2023/08/09 05:58:28;;;;;;;4.63;2.10;;;12.80;99.90;;;;;;5037259;28;20041;-71
2023/08/09 06:00:54;;;;;;;3.95;2.08;;;12.80;99.90;;;;;;5040368;28;20033;-71
2023/08/09 06:03:20;;;;;;;3.83;1.80;;;12.80;99.90;;;;;;5041186;28;20124;-72
2023/08/09 06:05:46;;;;;;;4.60;1.88;;;12.90;99.90;;;;;;5073885;28;20053;-71
2023/08/09 06:08:11;;;;;;;4.53;2.10;;;12.90;99.90;;;;;;5035148;28;20045;-71
2023/08/09 06:10:37;;;;;;;5.90;2.00;;;12.90;99.90;;;;;;5074388;28;20079;-71
2023/08/09 06:13:03;;;;;;;4.00;1.98;;;12.90;99.90;;;;;;5038175;28;20083;-71
2023/08/09 06:15:28;;;;;;;4.63;2.10;;;13.00;99.90;;;;;;5039340;28;20033;-71
2023/08/09 06:17:54;;;;;;;4.60;1.80;;;13.00;99.90;;;;;;5035572;28;20029;-72
2023/08/09 06:20:21;;;;;;;3.60;1.35;;;13.00;99.90;;;;;;5039585;28;20083;-71
2023/08/09 06:22:47;;;;;;;3.75;1.38;;;13.10;99.90;;;;;;5034799;28;20497;-72
2023/08/09 06:25:13;;;;;;;5.18;1.90;;;13.10;99.90;;;;;;5035232;28;20521;-71
2023/08/09 06:27:39;;;;;;;4.30;1.98;;;13.20;99.90;;;;;;5060305;28;20053;-73
2023/08/09 06:30:06;;;;;;;3.65;1.65;;;13.30;99.90;;;;;;5042393;28;20234;-70
2023/08/09 06:32:32;;;;;;;2.97;1.50;;;13.40;99.90;;;;;;5060771;28;20453;-71
2023/08/09 06:34:58;;;;;;;2.75;1.23;;;13.70;99.90;;;;;;5075807;28;20163;-72
2023/08/09 06:37:24;;;;;;;3.38;1.65;;;14.00;99.90;;;;;;5043045;28;20174;-71
2023/08/09 06:39:49;;;;;;;3.13;1.45;;;14.80;99.90;;;;;;5076117;28;20056;-71
2023/08/09 06:42:16;;;;;;;3.17;1.50;;;15.80;99.90;;;;;;5043550;28;20509;-71
2023/08/09 06:44:42;;;;;;;1.85;1.00;;;16.10;99.90;;;;;;5059714;28;20549;-72
2023/08/09 06:47:07;;;;;;;3.25;1.17;;;16.00;99.90;;;;;;5060703;28;20261;-72
2023/08/09 06:49:34;;;;;;;2.05;0.82;;;15.90;99.90;;;;;;5060340;28;20413;-71
2023/08/09 06:52:00;;;;;;;2.33;0.80;;;15.70;99.90;;;;;;5043278;28;20516;-72
2023/08/09 06:54:27;;;;;;;3.38;0.68;;;15.70;99.90;;;;;;5055184;28;20048;-72
2023/08/09 06:56:53;;;;;;;1.58;0.70;;;15.60;99.90;;;;;;5040173;28;20499;-71
2023/08/09 06:59:18;;;;;;;1.42;0.65;;;15.50;99.90;;;;;;5055745;28;20045;-72
2023/08/09 07:01:47;;;;;;;4.75;1.00;;;15.40;99.90;;;;;;5043572;28;20453;-72
2023/08/09 07:04:13;;;;;;;1.17;0.60;;;15.40;99.90;;;;;;5074473;28;21585;-72
2023/08/09 07:06:39;;;;;;;1.45;0.70;;;15.40;99.90;;;;;;5036809;28;20044;-72
2023/08/09 07:09:05;;;;;;;1.13;0.63;;;15.40;99.90;;;;;;5022624;28;20036;-72
2023/08/09 07:11:31;;;;;;;1.33;0.75;;;15.40;99.90;;;;;;5076169;28;20049;-72
2023/08/09 07:13:56;;;;;;;1.13;0.50;;;15.40;99.90;;;;;;5038959;28;20098;-72
2023/08/09 07:16:22;;;;;;;1.00;0.60;;;15.40;99.90;;;;;;5044175;28;20040;-72
2023/08/09 07:18:47;;;;;;;1.92;0.75;;;15.40;99.90;;;;;;5041954;28;20149;-72
2023/08/09 07:21:13;;;;;;;2.42;0.55;;;15.40;99.90;;;;;;5042717;28;20041;-71
2023/08/09 07:23:38;;;;;;;1.38;0.55;;;15.40;99.90;;;;;;5075485;28;20036;-71
2023/08/09 07:26:04;;;;;;;1.42;0.63;;;15.40;99.90;;;;;;5042420;28;20134;-71
2023/08/09 07:28:30;;;;;;;1.02;0.55;;;15.40;99.90;;;;;;5071787;28;20491;-71
2023/08/09 07:30:55;;;;;;;1.38;0.60;;;15.40;99.90;;;;;;5044005;28;20043;-71
2023/08/09 07:33:21;;;;;;;1.65;0.50;;;15.50;99.90;;;;;;5042437;28;20120;-71
2023/08/09 07:35:48;;;;;;;3.05;0.75;;;15.50;99.90;;;;;;5073505;28;20118;-72
2023/08/09 07:38:15;;;;;;;1.83;0.60;;;15.60;99.90;;;;;;5037072;28;20044;-71
2023/08/09 07:40:40;;;;;;;2.30;0.60;;;15.60;99.90;;;;;;5043833;28;20040;-71
2023/08/09 07:43:06;;;;;;;0.85;0.35;;;15.60;99.90;;;;;;5042598;28;20071;-72
2023/08/09 07:45:32;;;;;;;3.90;0.70;;;15.60;99.90;;;;;;5044505;28;20120;-71
2023/08/09 07:47:57;;;;;;;2.47;0.65;;;15.70;99.90;;;;;;5043314;28;20128;-71
2023/08/09 07:50:23;;;;;;;1.35;0.45;;;15.70;99.90;;;;;;5053693;28;20564;-71
2023/08/09 07:52:49;;;;;;;1.15;0.60;;;15.80;99.90;;;;;;5040082;28;20042;-71
2023/08/09 07:55:14;;;;;;;1.05;0.50;;;15.80;99.90;;;;;;5042574;28;20025;-71
2023/08/09 07:57:40;;;;;;;2.90;0.63;;;15.80;99.90;;;;;;5040611;28;20044;-71
2023/08/09 08:00:12;;;;;;;1.25;0.50;;;15.90;99.90;;;;;;5075414;28;20076;-71
2023/08/09 08:02:42;;;;;;;1.27;0.50;;;15.90;99.90;;;;;;5043586;28;20041;-71
2023/08/09 08:05:11;;;;;;;2.25;0.60;;;16.00;99.90;;;;;;5042291;28;20468;-71
2023/08/09 08:07:37;;;;;;;3.40;0.52;;;16.00;99.90;;;;;;5039431;28;20457;-71
2023/08/09 08:10:05;;;;;;;3.22;0.82;;;16.10;99.90;;;;;;5041632;28;20098;-71
2023/08/09 08:12:30;;;;;;;1.15;0.50;;;16.10;99.90;;;;;;5038556;28;20039;-71
2023/08/09 08:14:56;;;;;;;3.90;0.60;;;16.10;99.90;;;;;;5045006;28;20116;-71
2023/08/09 08:17:22;;;;;;;3.60;0.65;;;16.10;99.90;;;;;;5040663;28;20416;-71
2023/08/09 08:19:47;;;;;;;1.80;0.60;;;16.10;99.90;;;;;;5042035;28;20207;-71
2023/08/09 08:22:14;;;;;;;1.73;0.60;;;16.10;99.90;;;;;;5039143;28;20652;-71
2023/08/09 08:24:40;;;;;;;1.85;0.40;;;16.20;99.90;;;;;;5042292;28;20045;-71
2023/08/09 08:27:06;;;;;;;0.95;0.47;;;16.30;99.90;;;;;;5065696;28;21749;-71
2023/08/09 08:29:31;;;;;;;2.25;0.40;;;16.30;99.90;;;;;;5030560;28;20049;-71
2023/08/09 08:31:57;;;;;;;1.23;0.50;;;16.30;99.90;;;;;;5038627;28;20034;-71
2023/08/09 08:34:23;;;;;;;1.40;0.50;;;16.40;99.90;;;;;;5040709;28;20578;-72
2023/08/09 08:36:49;;;;;;;0.73;0.40;;;16.40;99.90;;;;;;5041914;28;20037;-71
2023/08/09 08:39:16;;;;;;;2.80;0.55;;;16.40;99.90;;;;;;5040951;28;20084;-71
2023/08/09 08:41:42;;;;;;;0.90;0.50;;;16.40;99.90;;;;;;5037640;28;20060;-72
2023/08/09 08:44:11;;;;;;;1.55;0.30;;;16.50;99.90;;;;;;5039611;28;20367;-71
2023/08/09 08:46:37;;;;;;;1.10;0.45;;;16.50;99.90;;;;;;5037716;28;20075;-71
2023/08/09 08:49:04;;;;;;;1.27;0.40;;;16.60;99.90;;;;;;5039598;28;20261;-71
2023/08/09 08:51:32;;;;;;;0.93;0.38;;;16.70;99.90;;;;;;5035392;28;20047;-71
2023/08/09 08:53:58;;;;;;;2.40;0.50;;;16.70;99.90;;;;;;5021213;28;20539;-71
2023/08/09 08:56:24;;;;;;;1.88;0.50;;;16.90;99.90;;;;;;5072545;28;20123;-71
2023/08/09 08:58:50;;;;;;;4.20;0.70;;;17.00;99.90;;;;;;5041949;28;20123;-71
2023/08/09 09:01:18;;;;;;;2.10;0.52;;;17.00;99.90;;;;;;5043077;28;20091;-71
2023/08/09 09:03:44;;;;;;;1.42;0.40;;;17.00;99.90;;;;;;5023735;28;20049;-71
2023/08/09 09:06:10;;;;;;;1.00;0.40;;;16.90;99.90;;;;;;5072367;28;20490;-71
2023/08/09 09:08:43;;;;;;;0.85;0.50;;;16.90;99.90;;;;;;5070323;28;20423;-71
2023/08/09 09:11:18;;;;;;;1.10;0.43;;;16.90;99.90;;;;;;5023746;28;20036;-71
2023/08/09 09:13:47;;;;;;;1.27;0.50;;;16.90;99.90;;;;;;5041201;28;20064;-71
2023/08/09 09:16:14;;;;;;;0.93;0.50;;;16.80;99.90;;;;;;5059410;28;20037;-71
2023/08/09 09:18:41;;;;;;;1.33;0.43;;;16.70;99.90;;;;;;5042095;28;20076;-71
2023/08/09 09:21:10;;;;;;;0.80;0.45;;;16.70;99.90;;;;;;5037770;28;20127;-71
2023/08/09 09:23:37;;;;;;;1.15;0.50;;;16.80;99.90;;;;;;5042037;28;20043;-71
2023/08/09 09:26:08;;;;;;;1.40;0.40;;;16.90;99.90;;;;;;5043411;28;20041;-71
2023/08/09 09:28:41;;;;;;;0.95;0.40;;;17.00;99.90;;;;;;5047599;28;20045;-72
2023/08/09 09:31:09;;;;;;;1.48;0.40;;;17.20;99.90;;;;;;5027761;28;20115;-71
2023/08/09 09:33:36;;;;;;;3.17;0.50;;;17.30;99.90;;;;;;5076199;28;20032;-71
2023/08/09 09:36:03;;;;;;;1.27;0.50;;;17.30;99.90;;;;;;5076035;28;20051;-74
2023/08/09 09:38:29;;;;;;;1.25;0.45;;;17.30;99.90;;;;;;5075997;28;20279;-72
2023/08/09 09:40:56;;;;;;;1.48;0.50;;;17.20;99.90;;;;;;5074682;28;20145;-72
2023/08/09 09:43:24;;;;;;;0.55;0.40;;;17.20;99.90;;;;;;5042565;28;20067;-72
2023/08/09 09:45:54;;;;;;;1.55;0.52;;;17.20;99.90;;;;;;5074657;28;20072;-72
2023/08/09 09:48:20;;;;;;;1.85;0.60;;;17.30;99.90;;;;;;5044497;28;20140;-71
2023/08/09 09:50:48;;;;;;;0.55;0.30;;;17.30;99.90;;;;;;5028925;28;20036;-71
2023/08/09 09:53:16;;;;;;;2.05;0.52;;;17.30;99.90;;;;;;5041960;28;20247;-72
2023/08/09 09:55:42;;;;;;;1.38;0.50;;;17.30;99.90;;;;;;5044065;28;20044;-71
2023/08/09 09:58:08;;;;;;;2.67;0.50;;;17.30;99.90;;;;;;5076372;28;20106;-72
2023/08/09 10:00:36;;;;;;;1.20;0.47;;;17.40;99.90;;;;;;5046531;28;20041;-72
2023/08/09 10:03:06;;;;;;;1.00;0.57;;;17.50;99.90;;;;;;5046647;28;20039;-71
2023/08/09 10:05:35;;;;;;;1.13;0.50;;;17.60;99.90;;;;;;5059685;28;20033;-72
2023/08/09 10:08:05;;;;;;;1.98;0.65;;;17.80;99.90;;;;;;5042541;28;20403;-72
2023/08/09 10:10:34;;;;;;;1.42;0.60;;;17.80;99.90;;;;;;5043325;28;20037;-72
2023/08/09 10:13:03;;;;;;;1.83;0.40;;;17.70;99.90;;;;;;5040824;28;20116;-72
2023/08/09 10:15:34;;;;;;;0.75;0.40;;;17.70;99.90;;;;;;5044462;28;20044;-72
2023/08/09 10:18:10;;;;;;;0.93;0.30;;;17.70;99.90;;;;;;5075816;28;20396;-72
2023/08/09 10:20:40;;;;;;;1.55;0.50;;;17.70;99.90;;;;;;5026847;28;20069;-72
2023/08/09 10:23:06;;;;;;;0.90;0.50;;;17.80;99.90;;;;;;5041490;28;20048;-72
2023/08/09 10:25:43;;;;;;;0.63;0.30;;;17.90;99.90;;;;;;5042187;28;20047;-72
2023/08/09 10:28:09;;;;;;;1.13;0.40;;;17.90;99.90;;;;;;5042054;28;20084;-72
2023/08/09 10:30:44;;;;;;;1.35;0.35;;;17.90;99.90;;;;;;5039473;28;20063;-72
2023/08/09 10:33:10;;;;;;;0.93;0.43;;;17.90;99.90;;;;;;5045555;28;20041;-72
2023/08/09 10:35:54;;;;;;;0.95;0.50;;;17.90;99.90;;;;;;5042329;28;20090;-72
2023/08/09 10:38:32;;;;;;;1.52;0.40;;;17.90;99.90;;;;;;5055224;28;20033;-71
2023/08/09 10:41:06;;;;;;;1.30;0.50;;;17.90;99.90;;;;;;5023514;28;20036;-72
2023/08/09 10:43:34;;;;;;;1.45;0.55;;;17.90;99.90;;;;;;5042173;28;20096;-72
2023/08/09 10:46:19;;;;;;;1.10;0.40;;;17.90;99.90;;;;;;5038714;28;20478;-72
2023/08/09 10:48:52;;;;;;;;;;;17.80;99.00;;;;;;5043437;28;20780;-71
2023/08/09 10:51:20;;;;;;;2.13;0.40;;;17.80;99.40;;;;;;5053607;28;20042;-72
2023/08/09 10:54:05;;;;;;;1.65;0.52;;;17.90;99.90;;;;;;5038644;28;20029;-72
2023/08/09 10:56:47;;;;;;;0.65;0.30;;;17.90;99.90;;;;;;5039397;28;20032;-71
2023/08/09 10:59:14;;;;;;;0.68;0.30;;;17.90;99.90;;;;;;5037969;28;20402;-71
2023/08/09 11:01:43;;;;;;;0.77;0.50;;;18.00;99.90;;;;;;5038833;28;20140;-71
2023/08/09 11:04:10;;;;;;;1.90;0.40;;;18.00;99.90;;;;;;5038227;28;20033;-71
2023/08/09 11:06:41;;;;;;;1.05;0.20;;;18.00;99.90;;;;;;5039108;28;20831;-72
2023/08/09 11:09:12;;;;;;;0.38;0.20;;;18.10;99.90;;;;;;5038696;28;20041;-71
2023/08/09 11:11:40;;;;;;;0.93;0.30;;;18.20;99.90;;;;;;5039181;28;20033;-72
2023/08/09 11:14:06;;;;;;;0.80;0.40;;;18.30;99.90;;;;;;5038088;28;20033;-71
2023/08/09 11:16:33;;;;;;;3.80;1.10;;;18.40;99.90;;;;;;5037673;28;20037;-72
2023/08/09 11:18:59;;;;;;;2.00;0.45;;;18.40;99.80;;;;;;5072490;28;20036;-71
2023/08/09 11:21:25;;;;;;;1.52;0.40;;;18.40;99.60;;;;;;5037321;28;20131;-72
2023/08/09 11:23:57;;;;;;;2.75;0.50;;;18.30;99.30;;;;;;5037117;28;20049;-72
2023/08/09 11:26:25;;;;;;;1.73;0.50;;;18.20;98.50;;;;;;5041201;28;20593;-72
2023/08/09 11:28:50;;;;;;;0.70;0.30;;;18.20;99.00;;;;;;5039799;28;20558;-72
2023/08/09 11:31:16;;;;;;;2.15;0.40;;;18.30;98.90;;;;;;5038485;28;20048;-71
2023/08/09 11:33:42;;;;;;;1.52;0.50;;;18.20;99.00;;;;;;5039514;28;20044;-71
2023/08/09 11:36:08;;;;;;;2.33;0.45;;;18.20;99.20;;;;;;5036292;28;20083;-71
2023/08/09 11:38:34;;;;;;;1.17;0.40;;;18.20;98.90;;;;;;5037543;28;20048;-71
2023/08/09 11:41:00;;;;;;;0.68;0.30;;;18.20;99.10;;;;;;5036144;28;20047;-71
2023/08/09 11:43:25;;;;;;;1.83;0.57;;;18.10;99.10;;;;;;5035121;28;20047;-71
2023/08/09 11:45:53;;;;;;;1.30;0.50;;;18.10;99.20;;;;;;5070716;28;20402;-71
2023/08/09 11:48:33;;;;;;;0.80;0.30;;;18.10;99.20;;;;;;5038615;28;20383;-71
2023/08/09 11:51:10;;;;;;;1.55;0.40;;;18.20;98.40;;;;;;5041742;28;20036;-71
2023/08/09 11:53:38;;;;;;;2.53;0.30;;;18.20;98.80;;;;;;5041324;28;20033;-71
2023/08/09 11:56:06;;;;;;;0.70;0.38;;;18.40;98.80;;;;;;5038632;28;20456;-71
2023/08/09 11:58:36;;;;;;;2.55;0.50;;;18.50;98.60;;;;;;5040488;28;20083;-71
2023/08/09 12:01:23;;;;;;;0.65;0.40;;;18.60;98.20;;;;;;5074636;28;20132;-71
2023/08/09 12:03:57;;;;;;;0.90;0.40;;;18.70;98.10;;;;;;5037283;28;20037;-71
2023/08/09 12:06:56;;;;;;;2.05;0.60;;;18.70;98.30;;;;;;5041736;28;20064;-71
2023/08/09 12:09:46;;;;;;;1.42;0.50;;;18.70;97.20;;;;;;5023027;28;20059;-71
2023/08/09 12:12:12;;;;;;;4.65;0.70;;;18.70;98.10;;;;;;5038580;28;20066;-71
2023/08/09 12:14:42;;;;;;;0.90;0.50;;;18.70;98.40;;;;;;5021678;28;20044;-71
2023/08/09 12:17:18;;;;;;;0.70;0.40;;;18.70;98.50;;;;;;5055400;28;20139;-71
2023/08/09 12:19:43;;;;;;;1.75;0.50;;;18.70;98.50;;;;;;5052868;28;20123;-71
2023/08/09 12:22:09;;;;;;;0.85;0.43;;;18.80;98.40;;;;;;5035959;28;20119;-71
2023/08/09 12:24:35;;;;;;;1.13;0.70;;;18.80;98.70;;;;;;5037725;28;20391;-71
2023/08/09 12:27:02;;;;;;;2.20;0.45;;;18.90;98.90;;;;;;5038667;28;20057;-71
2023/08/09 12:29:28;;;;;;;2.03;0.70;;;18.90;98.80;;;;;;5054317;28;20033;-71
2023/08/09 12:31:54;;;;;;;1.38;0.68;;;19.00;98.80;;;;;;5041332;28;20363;-71
2023/08/09 12:34:20;;;;;;;2.00;0.55;;;19.10;99.00;;;;;;5035332;28;20044;-71
2023/08/09 12:36:45;;;;;;;0.93;0.40;;;19.00;98.90;;;;;;5071831;28;20063;-71
2023/08/09 12:39:11;;;;;;;1.55;0.45;;;19.00;98.90;;;;;;5036498;28;20048;-71
2023/08/09 12:41:38;;;;;;;0.68;0.45;;;18.90;98.80;;;;;;5037296;28;20041;-72
2023/08/09 12:44:04;;;;;;;1.75;0.50;;;18.90;98.90;;;;;;5016838;28;20114;-71
2023/08/09 12:46:31;;;;;;;1.05;0.50;;;18.90;98.70;;;;;;5036846;28;20040;-71
2023/08/09 12:48:56;;;;;;;1.17;0.60;;;19.00;98.60;;;;;;5038306;28;20211;-71